Decoded Metar for UBBN (NAKHCHIVAN in AZERBAIJAN) (IATA:N/A) | Meteo·Mobile Aviation Weather
aviador You're here:

UBBN Decoded Metar

NAKHCHIVAN in AZERBAIJAN
Report Time2019-09-17 01:00:00
UTC Time2019-09-17 01:07:20
Flight Rules vfr VFR
Wind080° at 06 kt
W.Decomp.*RWY 14: 2.7 kt HW 5.3 kt LCW
Visibility9999 m
Phenomena:N/A
Clouds:N/A
Expected CloudBase > 3,200 ft AGL from Temp-Dew spread
CeilingNone
Temp16°C (ISA +12)
Dew Point08°C (59% RH)
AAT13.4°C
QNH1014 hPa
Density Alt7,198 ft
Elevation5,653 ft
Report Wrong Elevation
Raw Report
METAR UBBN 170100Z 08006KT 9999 NSC 16/08 Q1014 R14R/CLRD//
NOSIG RMK MT OP QFE685=

Extra information for UBBN:More info

Metar Taf Metar & Taf Last 4 Metars F.Rules Stats Wind Profile Meteogram Temp Stats Airport Information Weather charts Add Link Nearby VenuesMetar ALERT Operation Metar Decoded Social comments